createdAt,value
2023-07-24T00:00:07.986Z,1.00
2023-07-24T00:02:36.246Z,49.80
2023-07-24T00:05:04.884Z,59.70
2023-07-24T00:07:33.270Z,46.40
2023-07-24T00:10:01.609Z,70.50
2023-07-24T00:12:29.898Z,99.90
2023-07-24T00:14:59.577Z,99.90
2023-07-24T00:17:27.967Z,99.90
2023-07-24T00:19:56.280Z,99.90
2023-07-24T00:22:24.655Z,99.90
2023-07-24T00:24:53.021Z,99.90
2023-07-24T00:27:21.401Z,99.90
2023-07-24T00:29:49.736Z,99.90
2023-07-24T00:32:19.536Z,99.90
2023-07-24T00:34:47.897Z,99.90
2023-07-24T00:37:16.186Z,99.90
2023-07-24T00:39:44.676Z,99.90
2023-07-24T00:42:13.029Z,99.90
2023-07-24T00:44:41.345Z,99.90
2023-07-24T00:47:09.747Z,1.00
2023-07-24T00:49:39.555Z,1.00
2023-07-24T00:52:08.870Z,1.00
2023-07-24T00:54:37.396Z,1.00
2023-07-24T00:57:06.789Z,1.00
2023-07-24T00:59:35.592Z,1.00
2023-07-24T01:02:04.196Z,1.00
2023-07-24T01:04:32.749Z,1.00
2023-07-24T01:07:02.698Z,1.00
2023-07-24T01:09:30.970Z,1.00
2023-07-24T01:12:05.016Z,1.00
2023-07-24T01:14:44.150Z,1.00
2023-07-24T01:17:17.509Z,1.00
2023-07-24T01:19:49.896Z,1.00
2023-07-24T01:22:27.164Z,1.00
2023-07-24T01:25:06.477Z,1.00
2023-07-24T01:27:36.551Z,1.00
2023-07-24T01:30:05.245Z,1.00
2023-07-24T01:32:33.628Z,1.00
2023-07-24T01:35:02.092Z,1.00
2023-07-24T01:37:31.609Z,1.00
2023-07-24T01:40:00.491Z,1.00
2023-07-24T01:42:29.921Z,1.00
2023-07-24T01:44:59.569Z,1.00
2023-07-24T01:47:27.986Z,1.00
2023-07-24T01:49:56.340Z,1.00
2023-07-24T01:52:24.753Z,1.00
2023-07-24T01:54:53.028Z,1.00
2023-07-24T01:57:21.410Z,1.00
2023-07-24T01:59:50.278Z,1.00
2023-07-24T02:02:20.402Z,1.00
2023-07-24T02:04:48.811Z,1.00
2023-07-24T02:07:17.262Z,1.00
2023-07-24T02:09:45.644Z,1.00
2023-07-24T02:12:14.009Z,99.90
2023-07-24T02:14:42.238Z,99.90
2023-07-24T02:17:10.507Z,99.90
2023-07-24T02:19:40.164Z,99.90
2023-07-24T02:22:08.502Z,99.90
2023-07-24T02:24:37.473Z,99.90
2023-07-24T02:27:08.000Z,99.90
2023-07-24T02:29:37.055Z,1.00
2023-07-24T02:32:05.908Z,42.70
2023-07-24T02:34:34.346Z,1.00
2023-07-24T02:37:04.167Z,3.60
2023-07-24T02:39:32.514Z,1.00
2023-07-24T02:42:02.816Z,1.00
2023-07-24T02:44:31.056Z,1.00
2023-07-24T02:46:59.359Z,1.00
2023-07-24T02:49:27.723Z,1.00
2023-07-24T02:51:56.046Z,1.00
2023-07-24T02:54:25.700Z,1.00
2023-07-24T02:56:54.152Z,1.00
2023-07-24T02:59:22.428Z,1.00
2023-07-24T03:01:50.643Z,1.00
2023-07-24T03:04:19.226Z,99.90
2023-07-24T03:06:47.589Z,99.90
2023-07-24T03:09:16.278Z,99.90
2023-07-24T03:11:45.860Z,99.90
2023-07-24T03:14:14.226Z,99.90
2023-07-24T03:16:42.480Z,99.90
2023-07-24T03:19:10.760Z,99.90
2023-07-24T03:21:39.287Z,99.90
2023-07-24T03:24:07.870Z,99.90
2023-07-24T03:26:36.332Z,92.70
2023-07-24T03:29:07.409Z,80.70
2023-07-24T03:31:35.741Z,68.20
2023-07-24T03:34:04.125Z,56.60
2023-07-24T03:36:32.536Z,52.70
2023-07-24T03:39:00.944Z,41.50
2023-07-24T03:41:29.615Z,36.50
2023-07-24T03:43:58.106Z,34.00
2023-07-24T03:46:28.336Z,41.10
2023-07-24T03:48:57.177Z,40.00
2023-07-24T03:51:25.712Z,53.00
2023-07-24T03:53:55.167Z,55.70
2023-07-24T03:56:23.569Z,57.90
2023-07-24T03:58:52.196Z,49.20
2023-07-24T04:01:20.567Z,46.20
2023-07-24T04:03:50.315Z,45.60
2023-07-24T04:06:18.799Z,45.30
2023-07-24T04:08:47.133Z,49.80
2023-07-24T04:11:17.283Z,40.10
2023-07-24T04:13:45.618Z,40.70
2023-07-24T04:16:14.001Z,44.00
2023-07-24T04:18:42.324Z,32.50
2023-07-24T04:21:12.042Z,36.10
2023-07-24T04:23:43.941Z,27.30
2023-07-24T04:26:14.041Z,24.20
2023-07-24T04:28:42.750Z,21.40
2023-07-24T04:31:11.233Z,20.20
2023-07-24T04:33:39.575Z,20.00
2023-07-24T04:36:07.922Z,19.00
2023-07-24T04:38:41.073Z,26.50
2023-07-24T04:41:09.670Z,19.50
2023-07-24T04:43:38.010Z,17.50
2023-07-24T04:46:06.354Z,16.50
2023-07-24T04:48:34.616Z,12.90
2023-07-24T04:51:02.924Z,16.30
2023-07-24T04:53:31.589Z,15.10
2023-07-24T04:56:01.440Z,7.70
2023-07-24T04:58:29.704Z,7.70
2023-07-24T05:00:58.121Z,6.70
2023-07-24T05:03:26.418Z,5.20
2023-07-24T05:05:57.108Z,7.20
2023-07-24T05:08:25.805Z,7.20
2023-07-24T05:10:57.456Z,5.90
2023-07-24T05:13:27.228Z,2.30
2023-07-24T05:15:55.561Z,1.00
2023-07-24T05:18:23.981Z,1.00
2023-07-24T05:20:53.423Z,1.00
2023-07-24T05:23:21.712Z,1.00
2023-07-24T05:25:50.012Z,1.00
2023-07-24T05:28:18.264Z,1.00
2023-07-24T05:30:47.902Z,1.00
2023-07-24T05:33:16.246Z,1.00
2023-07-24T05:35:44.602Z,1.00
2023-07-24T05:38:13.151Z,1.00
2023-07-24T05:40:41.529Z,1.00
2023-07-24T05:43:09.853Z,1.00
2023-07-24T05:45:38.203Z,1.00
2023-07-24T05:48:08.140Z,1.00
2023-07-24T05:50:36.456Z,1.00
2023-07-24T05:53:04.841Z,1.00
2023-07-24T05:55:33.137Z,1.00
2023-07-24T05:58:01.522Z,1.00
2023-07-24T06:00:30.019Z,1.00
2023-07-24T06:02:58.455Z,1.00
2023-07-24T06:05:28.179Z,1.00
2023-07-24T06:07:57.234Z,1.00
2023-07-24T06:10:25.581Z,1.00
2023-07-24T06:12:53.863Z,1.00
2023-07-24T06:15:22.154Z,1.00
2023-07-24T06:17:52.610Z,1.00
2023-07-24T06:20:22.956Z,1.00
2023-07-24T06:22:52.662Z,1.00
2023-07-24T06:25:21.053Z,1.00
2023-07-24T06:27:49.377Z,1.00
2023-07-24T06:30:17.749Z,1.00
2023-07-24T06:32:46.156Z,1.00
2023-07-24T06:35:14.585Z,1.00
2023-07-24T06:37:42.957Z,1.00
2023-07-24T06:40:13.315Z,1.00
2023-07-24T06:42:41.593Z,1.00
2023-07-24T06:45:11.052Z,1.00
2023-07-24T06:47:39.486Z,1.00
2023-07-24T06:50:09.384Z,1.00
2023-07-24T06:52:37.835Z,1.00
2023-07-24T06:55:07.030Z,1.00
2023-07-24T06:57:36.789Z,1.00
2023-07-24T07:00:05.775Z,1.00
2023-07-24T07:02:34.181Z,1.00
2023-07-24T07:05:06.133Z,1.00
2023-07-24T07:07:34.828Z,1.00
2023-07-24T07:10:03.451Z,1.00
2023-07-24T07:12:31.698Z,1.00
2023-07-24T07:15:01.463Z,1.00
2023-07-24T07:17:29.893Z,1.00
2023-07-24T07:19:58.783Z,1.00
2023-07-24T07:22:26.992Z,1.00
2023-07-24T07:24:55.339Z,1.00
2023-07-24T07:27:23.856Z,1.00
2023-07-24T07:29:52.113Z,1.00
2023-07-24T07:32:21.706Z,1.00
2023-07-24T07:34:49.981Z,1.00
2023-07-24T07:37:18.379Z,1.00
2023-07-24T07:39:46.841Z,1.00
2023-07-24T07:42:18.345Z,1.00
2023-07-24T07:44:47.791Z,1.00
2023-07-24T07:47:16.161Z,1.00
2023-07-24T07:49:45.885Z,1.00
2023-07-24T07:52:15.902Z,1.00
2023-07-24T07:54:47.704Z,1.00
2023-07-24T07:57:16.475Z,1.00
2023-07-24T07:59:44.740Z,1.00
2023-07-24T08:02:13.124Z,1.00
2023-07-24T08:04:41.330Z,1.00
2023-07-24T08:07:11.034Z,1.00
2023-07-24T08:09:40.092Z,1.00
2023-07-24T08:12:09.448Z,1.00
2023-07-24T08:14:37.811Z,1.00
2023-07-24T08:17:06.784Z,1.00
2023-07-24T08:19:35.249Z,1.00
2023-07-24T08:22:03.733Z,1.00
2023-07-24T08:24:36.354Z,1.00
2023-07-24T08:27:05.430Z,1.00
2023-07-24T08:29:34.516Z,1.00
2023-07-24T08:32:03.081Z,1.00
2023-07-24T08:34:31.589Z,1.00
2023-07-24T08:37:00.107Z,1.00
2023-07-24T08:39:28.480Z,1.00
2023-07-24T08:41:59.185Z,1.00
2023-07-24T08:44:32.286Z,1.00
2023-07-24T08:47:01.922Z,1.00
2023-07-24T08:49:32.345Z,1.00
2023-07-24T08:52:02.154Z,1.00
2023-07-24T08:54:32.585Z,1.00
2023-07-24T08:57:03.150Z,1.00
2023-07-24T08:59:31.948Z,1.00
2023-07-24T09:02:00.359Z,1.00
2023-07-24T09:04:28.782Z,1.00
2023-07-24T09:06:58.926Z,1.00
2023-07-24T09:09:32.532Z,1.00
2023-07-24T09:12:02.243Z,1.00
2023-07-24T09:14:32.876Z,1.00
2023-07-24T09:17:05.869Z,1.00
2023-07-24T09:19:34.371Z,1.00
2023-07-24T09:22:14.153Z,1.00
2023-07-24T09:24:52.526Z,1.00
2023-07-24T09:27:22.913Z,1.00
2023-07-24T09:29:51.314Z,1.00
2023-07-24T09:32:23.905Z,1.00
2023-07-24T09:34:55.357Z,1.00
2023-07-24T09:37:28.335Z,1.00
2023-07-24T09:39:57.052Z,1.00
2023-07-24T09:42:34.531Z,1.00
2023-07-24T09:45:09.136Z,1.00
2023-07-24T09:47:55.179Z,1.00
2023-07-24T09:50:25.304Z,1.00
2023-07-24T09:52:54.446Z,1.00
2023-07-24T09:55:30.424Z,1.00
2023-07-24T09:58:02.794Z,1.00
2023-07-24T10:00:33.369Z,1.00
2023-07-24T10:03:02.285Z,1.00
2023-07-24T10:05:31.773Z,1.00
2023-07-24T10:08:00.916Z,1.00
2023-07-24T10:10:31.417Z,1.00
2023-07-24T10:13:01.471Z,1.00
2023-07-24T10:15:30.873Z,1.00
2023-07-24T10:18:05.485Z,1.00
2023-07-24T10:20:37.617Z,1.00
2023-07-24T10:23:08.504Z,1.00
2023-07-24T10:25:38.892Z,1.00
2023-07-24T10:28:12.106Z,1.00
2023-07-24T10:30:40.872Z,1.00
2023-07-24T10:33:12.038Z,1.00
2023-07-24T10:35:46.877Z,1.00
2023-07-24T10:38:17.346Z,1.00
2023-07-24T10:40:47.262Z,1.00
2023-07-24T10:43:22.743Z,1.00
2023-07-24T10:45:52.628Z,1.00
2023-07-24T10:48:22.385Z,1.00
2023-07-24T10:50:54.706Z,1.00
2023-07-24T10:53:24.510Z,1.00
2023-07-24T10:55:53.802Z,1.00
2023-07-24T10:58:27.477Z,1.00
2023-07-24T11:00:57.138Z,1.00
2023-07-24T11:03:27.177Z,1.00
2023-07-24T11:05:56.576Z,1.00
2023-07-24T11:08:24.840Z,1.00
2023-07-24T11:10:54.761Z,1.00
2023-07-24T11:13:25.869Z,1.00
2023-07-24T11:15:55.657Z,1.00
2023-07-24T11:18:34.181Z,1.00
2023-07-24T11:21:15.025Z,1.00
2023-07-24T11:23:48.096Z,1.00
2023-07-24T11:26:16.787Z,1.00
2023-07-24T11:28:46.753Z,1.00
2023-07-24T11:31:16.393Z,1.00
2023-07-24T11:33:46.450Z,1.00
2023-07-24T11:36:15.287Z,1.00
2023-07-24T11:38:43.595Z,1.00
2023-07-24T11:41:12.161Z,1.00
2023-07-24T11:43:49.918Z,1.00
2023-07-24T11:46:26.468Z,1.00
2023-07-24T11:48:57.884Z,1.00
2023-07-24T11:51:30.381Z,1.00
2023-07-24T11:54:09.525Z,1.00
2023-07-24T11:56:38.066Z,1.00
2023-07-24T11:59:15.297Z,1.00
2023-07-24T12:01:43.832Z,1.00
2023-07-24T12:04:12.584Z,1.00
2023-07-24T12:06:41.223Z,1.00
2023-07-24T12:09:09.842Z,1.00
2023-07-24T12:11:45.488Z,1.00
2023-07-24T12:14:16.436Z,1.00
2023-07-24T12:16:45.009Z,1.00
2023-07-24T12:19:13.570Z,1.00
2023-07-24T12:21:41.921Z,1.00
2023-07-24T12:24:10.231Z,1.00
2023-07-24T12:26:38.496Z,1.00
2023-07-24T12:29:06.773Z,1.00
2023-07-24T12:31:37.095Z,1.00
2023-07-24T12:34:05.666Z,1.00
2023-07-24T12:36:33.958Z,1.00
2023-07-24T12:39:02.297Z,1.00
2023-07-24T12:41:31.026Z,1.00
2023-07-24T12:44:01.148Z,1.00
2023-07-24T12:46:29.730Z,1.00
2023-07-24T12:48:59.490Z,1.00
2023-07-24T12:51:27.908Z,1.00
2023-07-24T12:54:03.199Z,1.00
2023-07-24T12:56:35.798Z,1.00
2023-07-24T12:59:04.634Z,1.00
2023-07-24T13:01:33.162Z,1.00
2023-07-24T13:04:03.031Z,1.00
2023-07-24T13:06:31.715Z,1.00
2023-07-24T13:09:00.424Z,1.00
2023-07-24T13:11:29.672Z,1.00
2023-07-24T13:13:58.713Z,1.00
2023-07-24T13:16:27.150Z,1.00
2023-07-24T13:18:55.526Z,1.00
2023-07-24T13:21:25.440Z,1.00
2023-07-24T13:23:53.763Z,1.00
2023-07-24T13:26:22.017Z,1.00
2023-07-24T13:28:50.401Z,1.00
2023-07-24T13:31:19.842Z,1.00
2023-07-24T13:33:48.853Z,1.00
2023-07-24T13:36:17.276Z,1.00
2023-07-24T13:38:47.004Z,1.00
2023-07-24T13:41:15.310Z,1.00
2023-07-24T13:43:43.612Z,1.00
2023-07-24T13:46:12.026Z,1.00
2023-07-24T13:48:40.572Z,1.00
2023-07-24T13:51:08.951Z,1.00
2023-07-24T13:53:37.287Z,1.00
2023-07-24T13:56:07.717Z,1.00
2023-07-24T13:58:35.946Z,1.00
2023-07-24T14:01:04.314Z,1.00
2023-07-24T14:03:32.832Z,1.00
2023-07-24T14:06:01.328Z,1.00
2023-07-24T14:08:29.647Z,1.00
2023-07-24T14:10:58.061Z,1.00
2023-07-24T14:13:27.847Z,1.00
2023-07-24T14:15:56.279Z,1.00
2023-07-24T14:18:24.806Z,1.00
2023-07-24T14:20:55.720Z,1.00
2023-07-24T14:23:24.219Z,1.00
2023-07-24T14:25:52.603Z,1.00
2023-07-24T14:28:23.887Z,1.00
2023-07-24T14:30:53.533Z,1.00
2023-07-24T14:33:23.593Z,1.00
2023-07-24T14:35:52.032Z,1.00
2023-07-24T14:38:20.511Z,1.00
2023-07-24T14:40:48.891Z,1.00
2023-07-24T14:43:17.334Z,1.00
2023-07-24T14:45:45.818Z,1.00
2023-07-24T14:48:17.889Z,1.00
2023-07-24T14:50:46.168Z,1.00
2023-07-24T14:53:14.500Z,1.00
2023-07-24T14:55:42.899Z,1.00
2023-07-24T14:58:11.326Z,1.00
2023-07-24T15:00:39.606Z,1.00
2023-07-24T15:03:08.031Z,1.00
2023-07-24T15:05:37.857Z,1.00
2023-07-24T15:08:06.771Z,1.00
2023-07-24T15:10:35.165Z,1.00
2023-07-24T15:13:03.382Z,1.00
2023-07-24T15:15:31.746Z,1.00
2023-07-24T15:18:01.082Z,1.00
2023-07-24T15:20:29.608Z,1.00
2023-07-24T15:23:00.496Z,1.00
2023-07-24T15:25:28.859Z,1.00
2023-07-24T15:27:57.121Z,1.00
2023-07-24T15:30:25.628Z,1.00
2023-07-24T15:32:54.050Z,1.00
2023-07-24T15:35:22.730Z,1.00
2023-07-24T15:37:51.264Z,1.00
2023-07-24T15:40:21.068Z,1.00
2023-07-24T15:42:49.488Z,1.00
2023-07-24T15:45:17.901Z,1.00
2023-07-24T15:47:46.309Z,1.00
2023-07-24T15:50:14.920Z,1.00
2023-07-24T15:52:44.584Z,1.00
2023-07-24T15:55:13.121Z,1.00
2023-07-24T15:57:43.006Z,1.00
2023-07-24T16:00:12.638Z,1.00
2023-07-24T16:02:41.977Z,1.00
2023-07-24T16:05:19.413Z,1.00
2023-07-24T16:07:47.720Z,1.00
2023-07-24T16:10:17.843Z,1.00
2023-07-24T16:12:47.623Z,1.00
2023-07-24T16:15:16.656Z,1.00
2023-07-24T16:20:16.288Z,1.00
2023-07-24T16:22:44.593Z,1.00
2023-07-24T16:25:12.874Z,1.00
2023-07-24T16:27:41.346Z,1.00
2023-07-24T16:30:12.355Z,1.00
2023-07-24T16:32:49.378Z,1.00
2023-07-24T16:35:18.697Z,1.00
2023-07-24T16:37:48.905Z,1.00
2023-07-24T16:40:18.725Z,1.00
2023-07-24T16:42:47.087Z,1.00
2023-07-24T16:47:48.090Z,1.00
2023-07-24T16:50:17.001Z,1.00
2023-07-24T16:52:45.490Z,1.00
2023-07-24T16:55:13.845Z,1.00
2023-07-24T16:57:42.201Z,1.00
2023-07-24T17:00:11.735Z,1.00
2023-07-24T17:02:41.486Z,1.00
2023-07-24T17:05:10.443Z,1.00
2023-07-24T17:07:38.761Z,1.00
2023-07-24T17:10:08.855Z,1.00
2023-07-24T17:12:37.250Z,1.00
2023-07-24T17:15:06.163Z,1.00
2023-07-24T17:17:34.924Z,1.00
2023-07-24T17:20:05.625Z,1.00
2023-07-24T17:22:34.027Z,1.00
2023-07-24T17:25:02.421Z,1.00
2023-07-24T17:27:32.009Z,1.00
2023-07-24T17:30:00.317Z,1.00
2023-07-24T17:32:28.678Z,1.00
2023-07-24T17:34:56.953Z,1.00
2023-07-24T17:37:37.337Z,1.00
2023-07-24T17:40:07.706Z,1.00
2023-07-24T17:42:36.074Z,1.00
2023-07-24T17:45:04.745Z,1.00
2023-07-24T17:47:34.033Z,1.00
2023-07-24T17:50:07.835Z,1.00
2023-07-24T17:52:38.631Z,1.00
2023-07-24T17:55:07.477Z,1.00
2023-07-24T17:57:35.810Z,1.00
2023-07-24T18:00:04.616Z,1.00
2023-07-24T18:02:33.600Z,1.00
2023-07-24T18:05:02.038Z,1.00
2023-07-24T18:07:30.431Z,1.00
2023-07-24T18:10:00.289Z,1.00
2023-07-24T18:12:29.151Z,1.00
2023-07-24T18:14:57.522Z,1.00
2023-07-24T18:17:25.885Z,1.00
2023-07-24T18:19:54.403Z,1.00
2023-07-24T18:22:22.727Z,1.00
2023-07-24T18:24:51.030Z,1.00
2023-07-24T18:27:20.816Z,1.00
2023-07-24T18:29:49.224Z,1.00
2023-07-24T18:32:17.552Z,1.00
2023-07-24T18:34:45.902Z,1.00
2023-07-24T18:37:14.421Z,1.00
2023-07-24T18:39:42.840Z,1.00
2023-07-24T18:42:11.485Z,1.00
2023-07-24T18:44:41.290Z,1.00
2023-07-24T18:47:09.744Z,1.00
2023-07-24T18:49:38.358Z,1.00
2023-07-24T18:52:07.755Z,1.00
2023-07-24T18:54:36.071Z,1.00
2023-07-24T18:57:04.670Z,1.00
2023-07-24T18:59:36.172Z,1.00
2023-07-24T19:02:06.606Z,1.00
2023-07-24T19:04:35.281Z,1.00
2023-07-24T19:07:03.811Z,1.00
2023-07-24T19:09:32.248Z,1.00
2023-07-24T19:12:00.700Z,1.00
2023-07-24T19:14:29.075Z,1.00
2023-07-24T19:16:57.527Z,1.00
2023-07-24T19:19:27.507Z,1.00
2023-07-24T19:21:55.915Z,1.00
2023-07-24T19:24:26.417Z,1.00
2023-07-24T19:26:54.882Z,1.00
2023-07-24T19:29:23.291Z,1.00
2023-07-24T19:31:52.222Z,1.00
2023-07-24T19:34:20.681Z,1.00
2023-07-24T19:36:51.125Z,1.00
2023-07-24T19:39:19.558Z,1.00
2023-07-24T19:41:47.922Z,1.00
2023-07-24T19:44:16.268Z,1.00
2023-07-24T19:46:44.648Z,1.00
2023-07-24T19:49:13.012Z,1.00
2023-07-24T19:51:41.413Z,1.00
2023-07-24T19:54:11.076Z,1.00
2023-07-24T19:56:39.503Z,1.00
2023-07-24T19:59:07.826Z,1.00
2023-07-24T20:01:36.260Z,1.00
2023-07-24T20:04:04.805Z,1.00
2023-07-24T20:06:33.244Z,1.00
2023-07-24T20:09:02.159Z,1.00
2023-07-24T20:11:32.101Z,1.00
2023-07-24T20:14:00.793Z,1.00
2023-07-24T20:16:29.380Z,1.00
2023-07-24T20:18:57.725Z,1.00
2023-07-24T20:21:26.182Z,1.00
2023-07-24T20:23:54.593Z,1.00
2023-07-24T20:26:23.015Z,1.00
2023-07-24T20:28:52.804Z,1.00
2023-07-24T20:31:21.053Z,1.00
2023-07-24T20:33:49.331Z,1.00
2023-07-24T20:36:17.725Z,1.00
2023-07-24T20:38:46.226Z,1.00
2023-07-24T20:41:14.528Z,1.00
2023-07-24T20:43:42.885Z,1.00
2023-07-24T20:46:17.159Z,1.00
2023-07-24T20:48:46.145Z,1.00
2023-07-24T20:51:19.141Z,1.00
2023-07-24T20:53:47.455Z,1.00
2023-07-24T20:56:15.887Z,1.00
2023-07-24T20:58:44.352Z,1.00
2023-07-24T21:01:12.846Z,1.00
2023-07-24T21:03:42.640Z,1.00
2023-07-24T21:06:10.929Z,1.00
2023-07-24T21:08:39.209Z,1.00
2023-07-24T21:11:07.672Z,1.00
2023-07-24T21:13:35.973Z,1.00
2023-07-24T21:16:04.311Z,1.00
2023-07-24T21:18:32.689Z,1.00
2023-07-24T21:21:02.557Z,1.00
2023-07-24T21:23:31.243Z,1.00
2023-07-24T21:26:00.132Z,1.00
2023-07-24T21:28:28.437Z,1.00
2023-07-24T21:30:56.817Z,1.00
2023-07-24T21:33:25.136Z,1.00
2023-07-24T21:36:04.958Z,1.00
2023-07-24T21:38:34.106Z,1.00
2023-07-24T21:41:02.609Z,1.00
2023-07-24T21:43:30.901Z,1.00
2023-07-24T21:45:59.244Z,1.00
2023-07-24T21:48:27.559Z,1.00
2023-07-24T21:50:55.954Z,1.00
2023-07-24T21:53:25.625Z,1.00
2023-07-24T21:55:53.994Z,1.00
2023-07-24T21:58:22.367Z,1.00
2023-07-24T22:00:50.738Z,1.00
2023-07-24T22:03:19.173Z,1.00
2023-07-24T22:05:47.473Z,1.00
2023-07-24T22:08:15.906Z,1.00
2023-07-24T22:10:45.598Z,1.00
2023-07-24T22:13:14.090Z,1.00
2023-07-24T22:15:42.457Z,1.00
2023-07-24T22:18:11.000Z,1.00
2023-07-24T22:20:41.729Z,1.00
2023-07-24T22:23:11.291Z,1.00
2023-07-24T22:25:40.742Z,1.00
2023-07-24T22:28:10.498Z,1.00
2023-07-24T22:30:38.771Z,1.00
2023-07-24T22:33:07.078Z,1.00
2023-07-24T22:35:35.425Z,1.00
2023-07-24T22:38:03.943Z,1.00
2023-07-24T22:40:32.853Z,1.00
2023-07-24T22:43:01.194Z,1.00
2023-07-24T22:45:31.697Z,1.00
2023-07-24T22:48:00.203Z,1.00
2023-07-24T22:50:28.592Z,1.00
2023-07-24T22:52:57.058Z,1.00
2023-07-24T22:55:25.416Z,1.00
2023-07-24T22:57:55.929Z,1.00
2023-07-24T23:00:26.029Z,1.00
2023-07-24T23:02:55.725Z,1.00
2023-07-24T23:05:24.156Z,1.00
2023-07-24T23:07:56.301Z,1.00
2023-07-24T23:10:24.800Z,1.00
2023-07-24T23:12:53.141Z,1.00
2023-07-24T23:15:21.418Z,1.00
2023-07-24T23:17:49.822Z,1.00
2023-07-24T23:20:19.708Z,1.00
2023-07-24T23:22:48.058Z,1.00
2023-07-24T23:25:16.355Z,5.00
2023-07-24T23:27:44.682Z,10.00
2023-07-24T23:30:13.271Z,14.10
2023-07-24T23:32:41.624Z,23.20
2023-07-24T23:35:10.476Z,29.80
2023-07-24T23:37:40.634Z,38.00
2023-07-24T23:40:10.058Z,45.30
2023-07-24T23:42:38.288Z,55.00
2023-07-24T23:45:07.483Z,63.40
2023-07-24T23:47:37.202Z,74.50
2023-07-24T23:50:06.100Z,83.20
2023-07-24T23:52:34.522Z,94.70
2023-07-24T23:55:04.434Z,98.50
2023-07-24T23:57:32.932Z,99.90
